Time;durP1;ratioP1;P1;durP2;ratioP2;P2;SDS_P1;SDS_P2;PMS_P1;PMS_P2;Temp;Humidity;BMP_temperature;BMP_pressure;BME280_temperature;BME280_humidity;BME280_pressure;Samples;Min_cycle;Max_cycle;Signal;HPM_P1;HPM_P2
2023/07/19 00:01:07;;;;;;;3.25;1.38;;;;;;;-145.41;100.00;58600.66;5004063;28;20041;-77
2023/07/19 00:03:33;;;;;;;4.20;1.90;;;;;;;-145.41;100.00;58600.66;5002055;28;20042;-78
2023/07/19 00:06:01;;;;;;;4.88;1.90;;;;;;;-145.41;100.00;58600.66;5013289;28;20512;-77
2023/07/19 00:08:26;;;;;;;3.83;2.05;;;;;;;-145.41;100.00;58600.66;4988796;28;20086;-78
2023/07/19 00:10:51;;;;;;;3.05;1.40;;;;;;;-145.41;100.00;58600.66;4998419;28;20038;-78
2023/07/19 00:13:17;;;;;;;5.05;2.35;;;;;;;-145.41;100.00;58600.66;5012788;28;20041;-77
2023/07/19 00:15:42;;;;;;;4.53;1.67;;;;;;;-145.41;100.00;58600.66;5006654;28;20041;-78
2023/07/19 00:18:07;;;;;;;4.05;2.08;;;;;;;-145.41;100.00;58600.66;5001912;28;20123;-77
2023/07/19 00:20:33;;;;;;;5.65;2.05;;;;;;;-145.41;100.00;58600.66;5012168;28;20421;-78
2023/07/19 00:22:58;;;;;;;6.07;2.13;;;;;;;-145.41;100.00;58600.66;5002428;28;20121;-77
2023/07/19 00:25:23;;;;;;;2.95;1.25;;;;;;;-145.41;100.00;58600.66;5008014;28;20069;-78
2023/07/19 00:27:49;;;;;;;3.83;1.75;;;;;;;-145.41;100.00;58600.66;5010277;28;20030;-77
2023/07/19 00:30:14;;;;;;;4.25;1.95;;;;;;;-145.41;100.00;58600.66;5000448;28;20104;-78
2023/07/19 00:32:40;;;;;;;3.35;1.50;;;;;;;-145.41;100.00;58600.66;5006960;28;20103;-77
2023/07/19 00:35:06;;;;;;;2.55;1.25;;;;;;;-145.41;100.00;58600.66;5008615;28;20033;-77
2023/07/19 00:37:31;;;;;;;3.38;1.70;;;;;;;-145.41;100.00;58600.66;5002502;28;20042;-77
2023/07/19 00:39:58;;;;;;;5.00;2.00;;;;;;;-145.41;100.00;58600.66;5009496;28;20030;-78
2023/07/19 00:42:23;;;;;;;5.97;2.13;;;;;;;-145.41;100.00;58600.66;5008445;28;20044;-77
2023/07/19 00:44:49;;;;;;;3.75;2.05;;;;;;;-145.41;100.00;58600.66;5000483;28;20034;-77
2023/07/19 00:47:15;;;;;;;5.30;2.22;;;;;;;-145.41;100.00;58600.66;5005654;28;20117;-77
2023/07/19 00:49:42;;;;;;;4.55;1.85;;;;;;;-145.41;100.00;58600.66;5006302;28;20034;-77
2023/07/19 00:52:08;;;;;;;4.63;1.92;;;;;;;-145.41;100.00;58600.66;5003481;28;20068;-77
2023/07/19 00:54:36;;;;;;;3.70;1.88;;;;;;;-145.41;100.00;58600.66;5003764;28;20518;-77
2023/07/19 00:57:03;;;;;;;3.20;1.50;;;;;;;-145.41;100.00;58600.66;5006646;28;20035;-77
2023/07/19 00:59:29;;;;;;;3.90;1.77;;;;;;;-145.41;100.00;58600.66;4998272;28;20074;-77
2023/07/19 01:01:54;;;;;;;4.72;1.90;;;;;;;-145.41;100.00;58600.66;5007610;28;20626;-77
2023/07/19 01:04:20;;;;;;;4.03;1.63;;;;;;;-145.41;100.00;58600.66;5006363;28;20069;-77
2023/07/19 01:06:45;;;;;;;3.88;2.05;;;;;;;-145.41;100.00;58600.66;4999093;28;20034;-77
2023/07/19 01:09:12;;;;;;;4.55;1.98;;;;;;;-145.41;100.00;58600.66;5008585;28;20437;-77
2023/07/19 01:11:38;;;;;;;4.50;1.88;;;;;;;-145.41;100.00;58600.66;5006573;28;20030;-77
2023/07/19 01:14:03;;;;;;;4.95;1.65;;;;;;;-145.41;100.00;58600.66;4998214;28;20503;-77
2023/07/19 01:16:29;;;;;;;4.70;1.92;;;;;;;-145.41;100.00;58600.66;5004811;28;20025;-77
2023/07/19 01:18:55;;;;;;;4.57;2.03;;;;;;;-145.41;100.00;58600.66;5006049;28;20493;-78
2023/07/19 01:21:21;;;;;;;5.97;2.03;;;;;;;-145.41;100.00;58600.66;4999232;28;20125;-77
2023/07/19 01:23:47;;;;;;;8.23;2.05;;;;;;;-145.41;100.00;58600.66;5009895;28;20036;-77
2023/07/19 01:26:12;;;;;;;3.25;1.60;;;;;;;-145.41;100.00;58600.66;5004581;28;20122;-77
2023/07/19 01:28:37;;;;;;;7.03;2.03;;;;;;;-145.41;100.00;58600.66;5004484;28;20034;-77
2023/07/19 01:31:05;;;;;;;3.90;1.65;;;;;;;-145.41;100.00;58600.66;5013761;28;20037;-77
2023/07/19 01:33:30;;;;;;;6.32;2.25;;;;;;;-145.41;100.00;58600.66;5006778;28;20511;-78
2023/07/19 01:35:55;;;;;;;4.28;1.70;;;;;;;-145.41;100.00;58600.66;5002621;28;20034;-78
2023/07/19 01:38:21;;;;;;;3.95;2.10;;;;;;;-145.41;100.00;58600.66;5009620;28;20085;-77
2023/07/19 01:40:46;;;;;;;3.78;1.95;;;;;;;-145.41;100.00;58600.66;5003050;28;20408;-77
2023/07/19 01:43:12;;;;;;;5.05;2.42;;;;;;;-145.41;100.00;58600.66;5009151;28;20404;-77
2023/07/19 01:45:37;;;;;;;4.00;1.70;;;;;;;-145.41;100.00;58600.66;5004794;28;20501;-78
2023/07/19 01:48:02;;;;;;;3.78;1.52;;;;;;;-145.41;100.00;58600.66;5005836;28;20061;-77
2023/07/19 01:50:29;;;;;;;3.33;1.58;;;;;;;-145.41;100.00;58600.66;5007861;28;20404;-78
2023/07/19 01:52:54;;;;;;;5.75;1.83;;;;;;;-145.41;100.00;58600.66;5006523;28;20116;-78
2023/07/19 01:55:20;;;;;;;4.47;2.00;;;;;;;-145.41;100.00;58600.66;5000321;28;20072;-78
2023/07/19 01:57:45;;;;;;;5.50;2.28;;;;;;;-145.41;100.00;58600.66;5007539;28;20041;-78
2023/07/19 02:00:11;;;;;;;4.35;2.00;;;;;;;-145.41;100.00;58600.66;5008812;28;20034;-77
2023/07/19 02:02:44;;;;;;;5.53;2.10;;;;;;;-145.41;100.00;58600.66;5002085;28;20441;-77
2023/07/19 02:05:10;;;;;;;7.97;2.97;;;;;;;-145.41;100.00;58600.66;5016883;28;20042;-77
2023/07/19 02:07:36;;;;;;;4.65;2.33;;;;;;;-145.41;100.00;58600.66;5012502;28;20516;-77
2023/07/19 02:10:02;;;;;;;4.15;2.08;;;;;;;-145.41;100.00;58600.66;5005584;28;20039;-78
2023/07/19 02:12:27;;;;;;;3.80;1.83;;;;;;;-145.41;100.00;58600.66;5013190;28;20048;-77
2023/07/19 02:14:54;;;;;;;3.70;2.17;;;;;;;-145.41;100.00;58600.66;5018636;28;20030;-78
2023/07/19 02:17:20;;;;;;;7.40;2.58;;;;;;;-145.41;100.00;58600.66;5008988;28;20428;-78
2023/07/19 02:19:46;;;;;;;5.13;2.47;;;;;;;-145.41;100.00;58600.66;5012521;28;20034;-77
2023/07/19 02:22:12;;;;;;;4.30;2.42;;;;;;;-145.41;100.00;58600.66;5009891;28;20043;-77
2023/07/19 02:24:37;;;;;;;4.25;1.70;;;;;;;-145.41;100.00;58600.66;5007612;28;20034;-77
2023/07/19 02:27:03;;;;;;;4.43;1.90;;;;;;;-145.41;100.00;58600.66;5015010;28;20052;-77
2023/07/19 02:29:28;;;;;;;5.18;2.28;;;;;;;-145.41;100.00;58600.66;5007760;28;20068;-77
2023/07/19 02:31:54;;;;;;;4.95;1.83;;;;;;;-145.41;100.00;58600.66;5006279;28;20023;-77
2023/07/19 02:34:20;;;;;;;6.95;2.63;;;;;;;-145.41;100.00;58600.66;5014312;28;20033;-78
2023/07/19 02:36:49;;;;;;;3.33;2.00;;;;;;;-145.41;100.00;58600.66;5013015;28;20506;-78
2023/07/19 02:39:17;;;;;;;4.18;1.65;;;;;;;-145.41;100.00;58600.66;5014229;28;20121;-78
2023/07/19 02:41:43;;;;;;;3.78;1.80;;;;;;;-145.41;100.00;58600.66;5015433;28;20041;-78
2023/07/19 02:44:09;;;;;;;5.32;2.30;;;;;;;-145.41;100.00;58600.66;5008169;28;20370;-77
2023/07/19 02:46:34;;;;;;;5.22;2.28;;;;;;;-145.41;100.00;58600.66;5007164;28;20025;-78
2023/07/19 02:48:59;;;;;;;5.20;2.30;;;;;;;-145.41;100.00;58600.66;4998967;28;20481;-77
2023/07/19 02:51:25;;;;;;;7.75;2.17;;;;;;;-145.41;100.00;58600.66;5005936;28;20122;-77
2023/07/19 02:53:50;;;;;;;6.07;2.10;;;;;;;-145.41;100.00;58600.66;5008749;28;20041;-77
2023/07/19 02:56:15;;;;;;;5.43;2.33;;;;;;;-145.41;100.00;58600.66;5010947;28;20035;-77
2023/07/19 02:58:42;;;;;;;3.35;1.90;;;;;;;-145.41;100.00;58600.66;5012187;28;20026;-78
2023/07/19 03:01:07;;;;;;;5.05;2.30;;;;;;;-145.41;100.00;58600.66;5008849;28;20038;-77
2023/07/19 03:03:32;;;;;;;4.35;2.25;;;;;;;-145.41;100.00;58600.66;5013393;28;20045;-78
2023/07/19 03:05:58;;;;;;;5.80;1.70;;;;;;;-145.41;100.00;58600.66;5005159;28;20038;-78
2023/07/19 03:08:23;;;;;;;5.20;1.95;;;;;;;-145.41;100.00;58600.66;5013244;28;20104;-77
2023/07/19 03:10:53;;;;;;;5.22;2.00;;;;;;;-145.41;100.00;58600.66;5008417;28;20036;-77
2023/07/19 03:13:19;;;;;;;4.35;2.35;;;;;;;-145.41;100.00;58600.66;5004304;28;20050;-78
2023/07/19 03:15:46;;;;;;;4.18;2.10;;;;;;;-145.41;100.00;58600.66;5003270;28;20045;-78
2023/07/19 03:18:11;;;;;;;4.68;2.47;;;;;;;-145.41;100.00;58600.66;5011162;28;20038;-78
2023/07/19 03:20:37;;;;;;;5.07;2.20;;;;;;;-145.41;100.00;58600.66;5003287;28;20133;-78
2023/07/19 03:23:03;;;;;;;3.58;1.85;;;;;;;-145.41;100.00;58600.66;5009524;28;20524;-78
2023/07/19 03:25:29;;;;;;;4.82;1.80;;;;;;;-145.41;100.00;58600.66;5008805;28;20031;-78
2023/07/19 03:27:56;;;;;;;3.97;2.05;;;;;;;-145.41;100.00;58600.66;5003702;28;20026;-77
2023/07/19 03:30:21;;;;;;;4.60;2.33;;;;;;;-145.41;100.00;58600.66;5012044;28;20105;-77
2023/07/19 03:32:47;;;;;;;4.53;2.28;;;;;;;-145.41;100.00;58600.66;5008408;28;20045;-78
2023/07/19 03:35:13;;;;;;;3.83;1.85;;;;;;;-145.41;100.00;58600.66;5005701;28;20034;-78
2023/07/19 03:37:44;;;;;;;5.40;2.00;;;;;;;-145.41;100.00;58600.66;5012545;28;20038;-78
2023/07/19 03:40:10;;;;;;;4.68;2.20;;;;;;;-145.41;100.00;58600.66;5016281;28;20405;-78
2023/07/19 03:42:36;;;;;;;6.28;2.55;;;;;;;-145.41;100.00;58600.66;5011506;28;20038;-78
2023/07/19 03:45:01;;;;;;;4.80;2.60;;;;;;;-145.41;100.00;58600.66;5016969;28;20106;-77
2023/07/19 03:47:27;;;;;;;5.45;2.95;;;;;;;-145.41;100.00;58600.66;5010543;28;20038;-78
2023/07/19 03:49:54;;;;;;;4.38;2.22;;;;;;;-145.41;100.00;58600.66;5005138;28;20030;-77
2023/07/19 03:52:19;;;;;;;4.18;2.05;;;;;;;-145.41;100.00;58600.66;5013023;28;20026;-78
2023/07/19 03:54:44;;;;;;;4.40;2.10;;;;;;;-145.41;100.00;58600.66;5008863;28;20555;-78
2023/07/19 03:57:11;;;;;;;6.63;2.80;;;;;;;-145.41;100.00;58600.66;5004561;28;20373;-78
2023/07/19 03:59:37;;;;;;;5.50;2.35;;;;;;;-145.41;100.00;58600.66;5000596;28;20064;-77
2023/07/19 04:02:03;;;;;;;7.45;2.28;;;;;;;-145.41;100.00;58600.66;5009673;28;20030;-78
2023/07/19 04:04:29;;;;;;;4.85;2.28;;;;;;;-145.41;100.00;58600.66;5010762;28;20570;-78
2023/07/19 04:06:57;;;;;;;5.30;2.15;;;;;;;-145.41;100.00;58600.66;5014116;28;20091;-77
2023/07/19 04:09:22;;;;;;;4.55;2.10;;;;;;;-145.41;100.00;58600.66;5004900;28;20030;-78
2023/07/19 04:11:47;;;;;;;5.50;2.40;;;;;;;-145.41;100.00;58600.66;5007123;28;20087;-78
2023/07/19 04:14:12;;;;;;;3.92;2.30;;;;;;;-145.41;100.00;58600.66;5013693;28;20037;-78
2023/07/19 04:16:40;;;;;;;5.15;2.53;;;;;;;-145.41;100.00;58600.66;5008174;28;20390;-78
2023/07/19 04:19:06;;;;;;;3.63;2.10;;;;;;;-145.41;100.00;58600.66;5000371;28;20041;-78
2023/07/19 04:21:31;;;;;;;5.25;2.33;;;;;;;-145.41;100.00;58600.66;4997826;28;20057;-78
2023/07/19 04:23:56;;;;;;;3.75;2.22;;;;;;;-145.41;100.00;58600.66;5006525;28;20041;-78
2023/07/19 04:26:22;;;;;;;5.38;2.58;;;;;;;-145.41;100.00;58600.66;5007345;28;20034;-77
2023/07/19 04:28:47;;;;;;;5.10;2.28;;;;;;;-145.41;100.00;58600.66;5020712;22;20057;-76
2023/07/19 04:31:13;;;;;;;8.85;3.08;;;;;;;-145.41;100.00;58600.66;5011864;28;20022;-78
2023/07/19 04:33:41;;;;;;;4.53;2.05;;;;;;;-145.41;100.00;58600.66;4998215;28;20050;-78
2023/07/19 04:36:13;;;;;;;4.18;2.38;;;;;;;-145.41;100.00;58600.66;4998230;28;20057;-78
2023/07/19 04:38:40;;;;;;;6.63;3.10;;;;;;;-145.41;100.00;58600.66;4988131;28;20053;-77
2023/07/19 04:41:07;;;;;;;8.27;3.22;;;;;;;-145.41;100.00;58600.66;4974941;28;20134;-78
2023/07/19 04:43:33;;;;;;;4.93;2.10;;;;;;;-145.41;100.00;58600.66;4982848;28;20583;-77
2023/07/19 04:45:59;;;;;;;5.30;2.53;;;;;;;-145.41;100.00;58600.66;4985040;28;20216;-77
2023/07/19 04:48:24;;;;;;;5.95;2.67;;;;;;;-145.41;100.00;58600.66;4976443;28;20029;-76
2023/07/19 04:50:54;;;;;;;5.50;2.72;;;;;;;-145.41;100.00;58600.66;4990642;28;20046;-77
2023/07/19 04:53:21;;;;;;;4.90;2.30;;;;;;;-145.41;100.00;58600.66;4992457;28;20022;-77
2023/07/19 04:55:46;;;;;;;6.57;2.60;;;;;;;-145.41;100.00;58600.66;4979928;28;20100;-77
2023/07/19 04:58:13;;;;;;;5.60;3.28;;;;;;;-145.41;100.00;58600.66;4982051;28;20027;-78
2023/07/19 05:00:39;;;;;;;9.98;3.33;;;;;;;-145.41;100.00;58600.66;4994014;28;20035;-77
2023/07/19 05:03:04;;;;;;;5.20;2.58;;;;;;;-145.41;100.00;58600.66;4965164;28;20027;-77
2023/07/19 05:05:30;;;;;;;4.28;2.65;;;;;;;-145.41;100.00;58600.66;4993666;28;20042;-77
2023/07/19 05:07:55;;;;;;;6.78;2.20;;;;;;;-145.41;100.00;58600.66;4974478;28;20030;-76
2023/07/19 05:10:21;;;;;;;5.15;2.50;;;;;;;-145.41;100.00;58600.66;4977406;28;20030;-78
2023/07/19 05:12:47;;;;;;;6.68;3.15;;;;;;;-145.41;100.00;58600.66;4991679;28;20548;-77
2023/07/19 05:15:12;;;;;;;7.13;3.10;;;;;;;-145.41;100.00;58600.66;4978603;28;20057;-78
2023/07/19 05:17:38;;;;;;;4.63;2.60;;;;;;;-145.41;100.00;58600.66;4978504;28;20082;-76
2023/07/19 05:20:05;;;;;;;5.35;2.80;;;;;;;-145.41;100.00;58600.66;4979610;28;20402;-77
2023/07/19 05:22:32;;;;;;;6.30;2.80;;;;;;;-145.41;100.00;58600.66;4980052;28;20531;-78
2023/07/19 05:24:59;;;;;;;7.57;3.20;;;;;;;-145.41;100.00;58600.66;4991256;28;20378;-78
2023/07/19 05:27:24;;;;;;;5.72;2.88;;;;;;;-145.41;100.00;58600.66;4979988;28;20046;-77
2023/07/19 05:29:49;;;;;;;5.90;2.38;;;;;;;-145.41;100.00;58600.66;4976119;28;20089;-76
2023/07/19 05:32:15;;;;;;;5.68;2.60;;;;;;;-145.41;100.00;58600.66;4981915;28;20449;-77
2023/07/19 05:34:41;;;;;;;5.85;2.72;;;;;;;-145.41;100.00;58600.66;4982688;28;20026;-76
2023/07/19 05:37:06;;;;;;;5.93;3.08;;;;;;;-145.41;100.00;58600.66;4979207;28;20038;-78
2023/07/19 05:39:34;;;;;;;4.88;2.25;;;;;;;-145.41;100.00;58600.66;4977960;28;20042;-76
2023/07/19 05:42:00;;;;;;;5.95;2.15;;;;;;;-145.41;100.00;58600.66;4983444;28;20121;-77
2023/07/19 05:44:25;;;;;;;9.98;3.60;;;;;;;-145.41;100.00;58600.66;4979802;28;20077;-77
2023/07/19 05:46:52;;;;;;;3.78;2.10;;;;;;;-145.41;100.00;58600.66;4982871;28;20489;-77
2023/07/19 05:49:17;;;;;;;6.05;2.67;;;;;;;-145.41;100.00;58600.66;4982269;28;20053;-77
2023/07/19 05:51:43;;;;;;;4.00;2.13;;;;;;;-145.41;100.00;58600.66;4977672;28;20026;-77
2023/07/19 05:54:08;;;;;;;4.78;2.05;;;;;;;-145.41;100.00;58600.66;4982955;28;20065;-77
2023/07/19 05:56:33;;;;;;;4.30;1.80;;;;;;;-145.41;100.00;58600.66;4981929;28;20117;-78
2023/07/19 05:59:00;;;;;;;7.60;2.10;;;;;;;-145.41;100.00;58600.66;4977001;28;20464;-77
2023/07/19 06:01:25;;;;;;;3.83;1.48;;;;;;;-145.41;100.00;58600.66;4977058;28;20042;-77
2023/07/19 06:03:51;;;;;;;4.07;2.40;;;;;;;-145.41;100.00;58600.66;4977228;28;20034;-77
2023/07/19 06:06:16;;;;;;;5.68;2.30;;;;;;;-145.41;100.00;58600.66;4976211;28;20051;-77
2023/07/19 06:08:41;;;;;;;4.63;1.83;;;;;;;-145.41;100.00;58600.66;4977117;28;20050;-78
2023/07/19 06:11:07;;;;;;;3.08;1.83;;;;;;;-145.41;100.00;58600.66;4982519;28;20038;-77
2023/07/19 06:13:33;;;;;;;5.47;2.10;;;;;;;-145.41;100.00;58600.66;4980893;28;20173;-77
2023/07/19 06:15:58;;;;;;;4.25;1.70;;;;;;;-145.41;100.00;58600.66;4984424;28;20034;-77
2023/07/19 06:18:23;;;;;;;5.18;2.05;;;;;;;-145.41;100.00;58600.66;4977796;28;20030;-77
2023/07/19 06:20:49;;;;;;;3.67;1.60;;;;;;;-145.41;100.00;58600.66;4982240;28;20035;-79
2023/07/19 06:23:14;;;;;;;5.32;1.90;;;;;;;-145.41;100.00;58600.66;4976760;28;20037;-76
2023/07/19 06:25:40;;;;;;;5.75;2.05;;;;;;;-145.41;100.00;58600.66;4986729;28;20062;-77
2023/07/19 06:28:05;;;;;;;6.15;1.92;;;;;;;-145.41;100.00;58600.66;4975968;28;20035;-77
2023/07/19 06:30:31;;;;;;;5.28;2.10;;;;;;;-145.41;100.00;58600.66;4976319;28;20045;-78
2023/07/19 06:32:57;;;;;;;3.47;1.65;;;;;;;-145.41;100.00;58600.66;4979886;28;20109;-76
2023/07/19 06:35:22;;;;;;;4.32;2.45;;;;;;;-145.41;100.00;58600.66;4982913;28;20089;-78
2023/07/19 06:37:48;;;;;;;7.22;2.63;;;;;;;-145.41;100.00;58600.66;4976261;28;20485;-77
2023/07/19 06:40:13;;;;;;;4.20;1.55;;;;;;;-145.41;100.00;58600.66;4976516;28;20478;-78
2023/07/19 06:42:38;;;;;;;3.25;1.60;;;;;;;-145.41;100.00;58600.66;4981490;28;20464;-77
2023/07/19 06:45:04;;;;;;;4.50;2.25;;;;;;;-145.41;100.00;58600.66;4975458;28;20038;-78
2023/07/19 06:47:30;;;;;;;5.85;2.15;;;;;;;-145.41;100.00;58600.66;4980578;28;20039;-78
2023/07/19 06:49:57;;;;;;;3.05;1.48;;;;;;;-145.41;100.00;58600.66;4987937;28;20416;-77
2023/07/19 06:52:23;;;;;;;5.85;2.53;;;;;;;-145.41;100.00;58600.66;4979576;28;20034;-79
2023/07/19 06:54:48;;;;;;;4.25;1.65;;;;;;;-145.41;100.00;58600.66;4982350;28;20514;-79
2023/07/19 06:57:13;;;;;;;5.50;2.60;;;;;;;-145.41;100.00;58600.66;4989209;28;20048;-78
2023/07/19 06:59:39;;;;;;;4.10;2.00;;;;;;;-145.41;100.00;58600.66;4978893;28;20100;-78
2023/07/19 07:02:05;;;;;;;5.63;2.53;;;;;;;-145.41;100.00;58600.66;4981209;28;20034;-79
2023/07/19 07:04:31;;;;;;;5.15;1.95;;;;;;;-145.41;100.00;58600.66;4981587;28;20048;-77
2023/07/19 07:06:56;;;;;;;4.63;2.20;;;;;;;-145.41;100.00;58600.66;4981232;28;20041;-77
2023/07/19 07:09:21;;;;;;;5.65;1.77;;;;;;;-145.41;100.00;58600.66;4987853;28;20042;-78
2023/07/19 07:11:47;;;;;;;6.03;1.98;;;;;;;-145.41;100.00;58600.66;4979275;28;20030;-78
2023/07/19 07:14:12;;;;;;;4.45;1.63;;;;;;;-145.41;100.00;58600.66;4985458;28;20037;-77
2023/07/19 07:16:37;;;;;;;3.30;1.50;;;;;;;-145.41;100.00;58600.66;4983060;28;20030;-77
2023/07/19 07:19:04;;;;;;;4.00;1.90;;;;;;;-145.41;100.00;58600.66;4974699;28;20037;-77
2023/07/19 07:21:29;;;;;;;4.07;1.80;;;;;;;-145.41;100.00;58600.66;4980579;28;20068;-77
2023/07/19 07:23:55;;;;;;;3.85;1.85;;;;;;;-145.41;100.00;58600.66;4981136;28;20030;-78
2023/07/19 07:26:20;;;;;;;4.75;1.98;;;;;;;-145.41;100.00;58600.66;4977819;28;20064;-77
2023/07/19 07:28:45;;;;;;;3.80;1.85;;;;;;;-145.41;100.00;58600.66;4975964;28;20042;-76
2023/07/19 07:31:11;;;;;;;4.80;1.73;;;;;;;-145.41;100.00;58600.66;4983486;28;20568;-77
2023/07/19 07:33:37;;;;;;;3.17;1.83;;;;;;;-145.41;100.00;58600.66;4977834;28;20573;-78
2023/07/19 07:36:02;;;;;;;4.72;1.30;;;;;;;-145.41;100.00;58600.66;4979891;28;20110;-78
2023/07/19 07:38:28;;;;;;;4.97;1.55;;;;;;;-145.41;100.00;58600.66;4981168;28;20042;-77
2023/07/19 07:41:00;;;;;;;3.80;1.58;;;;;;;-145.41;100.00;58600.66;4983930;28;20046;-77
2023/07/19 07:43:25;;;;;;;5.38;1.80;;;;;;;-145.41;100.00;58600.66;4980732;28;20034;-78
2023/07/19 07:45:54;;;;;;;3.30;1.50;;;;;;;-145.41;100.00;58600.66;4986431;28;20513;-77
2023/07/19 07:48:21;;;;;;;3.20;1.63;;;;;;;-145.41;100.00;58600.66;4977915;28;20043;-78
2023/07/19 07:50:49;;;;;;;4.53;1.70;;;;;;;-145.41;100.00;58600.66;4979673;28;20164;-78
2023/07/19 07:53:15;;;;;;;4.30;2.22;;;;;;;-145.41;100.00;58600.66;4985876;28;20035;-78
2023/07/19 07:55:41;;;;;;;5.60;1.73;;;;;;;-145.41;100.00;58600.66;4980203;28;20038;-77
2023/07/19 07:58:07;;;;;;;3.53;1.20;;;;;;;-145.41;100.00;58600.66;4981549;28;20034;-78
2023/07/19 08:00:32;;;;;;;5.10;1.65;;;;;;;-145.41;100.00;58600.66;4982497;28;20045;-76
2023/07/19 08:02:57;;;;;;;3.88;1.52;;;;;;;-145.41;100.00;58600.66;4980875;28;20066;-77
2023/07/19 08:05:23;;;;;;;2.78;1.45;;;;;;;-145.41;100.00;58600.66;4978800;28;20105;-77
2023/07/19 08:07:48;;;;;;;4.30;1.58;;;;;;;-145.41;100.00;58600.66;4980145;28;20027;-78
2023/07/19 08:10:13;;;;;;;2.75;1.30;;;;;;;-145.41;100.00;58600.66;4978251;28;20314;-79
2023/07/19 08:12:39;;;;;;;4.57;1.50;;;;;;;-145.41;100.00;58600.66;4985292;28;20034;-78
2023/07/19 08:15:05;;;;;;;3.28;1.70;;;;;;;-145.41;100.00;58600.66;4979259;28;20039;-77
2023/07/19 08:17:31;;;;;;;6.32;1.60;;;;;;;-145.41;100.00;58600.66;4977503;28;20038;-76
2023/07/19 08:19:56;;;;;;;4.50;1.60;;;;;;;-145.41;100.00;58600.66;4979646;28;20374;-78
2023/07/19 08:22:27;;;;;;;6.65;2.75;;;;;;;-145.41;100.00;58600.66;4978201;28;20504;-77
2023/07/19 08:24:53;;;;;;;5.73;2.60;;;;;;;-145.41;100.00;58600.66;4978387;28;20113;-78
2023/07/19 08:27:18;;;;;;;3.05;1.42;;;;;;;-145.41;100.00;58600.66;4982943;28;20372;-77
2023/07/19 08:29:43;;;;;;;2.53;1.00;;;;;;;-145.41;100.00;58600.66;4981638;28;20037;-77
2023/07/19 08:32:09;;;;;;;3.40;1.38;;;;;;;-145.41;100.00;58600.66;4980321;28;20093;-77
2023/07/19 08:34:34;;;;;;;4.45;1.48;;;;;;;-145.41;100.00;58600.66;4980267;28;20046;-78
2023/07/19 08:37:00;;;;;;;4.95;1.23;;;;;;;-145.41;100.00;58600.66;4981694;28;20043;-78
2023/07/19 08:39:27;;;;;;;3.28;1.20;;;;;;;-145.41;100.00;58600.66;4980220;28;20045;-77
2023/07/19 08:41:53;;;;;;;3.85;1.50;;;;;;;-145.41;100.00;58600.66;4981516;28;20141;-77
2023/07/19 08:44:21;;;;;;;3.78;1.60;;;;;;;-145.41;100.00;58600.66;4984121;28;20039;-77
2023/07/19 08:46:48;;;;;;;4.03;1.88;;;;;;;-145.41;100.00;58600.66;4981249;28;20382;-78
2023/07/19 08:49:17;;;;;;;3.28;1.40;;;;;;;-145.41;100.00;58600.66;4980487;28;20040;-77
2023/07/19 08:51:44;;;;;;;3.65;1.52;;;;;;;-145.41;100.00;58600.66;4979735;28;20034;-78
2023/07/19 08:54:10;;;;;;;5.32;1.40;;;;;;;-145.41;100.00;58600.66;4978646;28;20062;-76
2023/07/19 08:56:35;;;;;;;4.78;1.52;;;;;;;-145.41;100.00;58600.66;4976342;28;20096;-78
2023/07/19 08:59:01;;;;;;;4.43;1.60;;;;;;;-145.41;100.00;58600.66;4978963;28;20096;-78
2023/07/19 09:01:26;;;;;;;2.80;1.42;;;;;;;-145.41;100.00;58600.66;4980954;28;20049;-78
2023/07/19 09:03:52;;;;;;;3.63;1.60;;;;;;;-145.41;100.00;58600.66;4981994;28;20062;-77
2023/07/19 09:06:30;;;;;;;3.33;1.40;;;;;;;-145.41;100.00;58600.66;4985502;28;20038;-78
2023/07/19 09:08:55;;;;;;;4.53;1.60;;;;;;;-145.41;100.00;58600.66;4979249;28;20042;-79
2023/07/19 09:11:22;;;;;;;3.00;1.30;;;;;;;-145.41;100.00;58600.66;4986420;28;20046;-78
2023/07/19 09:13:57;;;;;;;5.28;1.50;;;;;;;-145.41;100.00;58600.66;4981883;28;20027;-78
2023/07/19 09:16:40;;;;;;;3.58;1.40;;;;;;;-145.41;100.00;58600.66;4980873;28;20057;-79
2023/07/19 09:19:07;;;;;;;5.30;2.05;;;;;;;-145.41;100.00;58600.66;4979442;28;20449;-78
2023/07/19 09:21:37;;;;;;;4.07;1.60;;;;;;;-145.41;100.00;58600.66;4984257;28;20096;-77
2023/07/19 09:24:06;;;;;;;9.30;1.48;;;;;;;-145.41;100.00;58600.66;4977155;28;20490;-77
2023/07/19 09:26:52;;;;;;;2.25;1.20;;;;;;;-145.41;100.00;58600.66;4976266;28;20560;-79
2023/07/19 09:29:19;;;;;;;4.07;1.70;;;;;;;-145.41;100.00;58600.66;4983241;28;20481;-77
2023/07/19 09:31:56;;;;;;;3.95;1.60;;;;;;;-145.41;100.00;58600.66;4980669;28;20053;-78
2023/07/19 09:34:36;;;;;;;4.45;1.50;;;;;;;-145.41;100.00;58600.66;4976326;28;20027;-78
2023/07/19 09:37:02;;;;;;;3.85;1.27;;;;;;;-145.41;100.00;58600.66;4976076;28;20065;-78
2023/07/19 09:39:35;;;;;;;3.95;1.70;;;;;;;-145.41;100.00;58600.66;4979665;28;20047;-78
2023/07/19 09:42:01;;;;;;;3.67;1.60;;;;;;;-145.41;100.00;58600.66;4984324;28;20093;-77
2023/07/19 09:44:27;;;;;;;3.75;1.65;;;;;;;-145.41;100.00;58600.66;4979354;28;20061;-77
2023/07/19 09:46:54;;;;;;;3.25;2.05;;;;;;;-145.41;100.00;58600.66;4980652;28;20141;-78
2023/07/19 09:49:19;;;;;;;3.30;1.75;;;;;;;-145.41;100.00;58600.66;4985096;28;20038;-77
2023/07/19 09:51:47;;;;;;;3.38;1.40;;;;;;;-145.41;100.00;58600.66;4978514;28;20080;-76
2023/07/19 09:54:14;;;;;;;4.55;2.03;;;;;;;-145.41;100.00;58600.66;4977394;28;20066;-78
2023/07/19 09:56:41;;;;;;;3.88;1.75;;;;;;;-145.41;100.00;58600.66;4977437;28;20034;-79
2023/07/19 09:59:11;;;;;;;3.65;1.35;;;;;;;-145.41;100.00;58600.66;4977161;28;20401;-78
2023/07/19 10:01:36;;;;;;;3.45;1.60;;;;;;;-145.41;100.00;58600.66;4981217;28;20444;-78
2023/07/19 10:04:21;;;;;;;3.40;1.60;;;;;;;-145.41;100.00;58600.66;4982787;28;20069;-79
2023/07/19 10:06:46;;;;;;;3.33;1.30;;;;;;;-145.41;100.00;58600.66;4982426;28;20035;-79
2023/07/19 10:09:30;;;;;;;4.72;1.50;;;;;;;-145.41;100.00;58600.66;4983693;28;20153;-78
2023/07/19 10:12:07;;;;;;;4.55;1.67;;;;;;;-145.41;100.00;58600.66;4976153;28;20501;-78
2023/07/19 10:14:32;;;;;;;3.72;1.73;;;;;;;-145.41;100.00;58600.66;4976907;28;20039;-79
2023/07/19 10:17:00;;;;;;;3.72;1.50;;;;;;;-145.41;100.00;58600.66;4981501;28;20050;-78
2023/07/19 10:19:25;;;;;;;3.03;1.10;;;;;;;-145.41;100.00;58600.66;4977161;28;20117;-77
2023/07/19 10:22:05;;;;;;;3.38;1.48;;;;;;;-145.41;100.00;58600.66;4976080;28;20129;-77
2023/07/19 10:24:32;;;;;;;3.05;1.50;;;;;;;-145.41;100.00;58600.66;4979684;28;20053;-79
2023/07/19 10:27:08;;;;;;;2.50;1.38;;;;;;;-145.41;100.00;58600.66;4980803;28;20031;-78
2023/07/19 10:29:46;;;;;;;2.70;1.40;;;;;;;-145.41;100.00;58600.66;4980679;28;20054;-77
2023/07/19 10:32:12;;;;;;;5.18;1.58;;;;;;;-145.41;100.00;58600.66;4996049;28;20548;-78
2023/07/19 10:34:38;;;;;;;4.22;1.45;;;;;;;-145.41;100.00;58600.66;4984764;28;20070;-77
2023/07/19 10:37:04;;;;;;;2.92;1.55;;;;;;;-145.41;100.00;58600.66;4984971;28;20065;-79
2023/07/19 10:39:33;;;;;;;3.92;1.90;;;;;;;-145.41;100.00;58600.66;4989461;28;20038;-78
2023/07/19 10:41:59;;;;;;;3.28;1.50;;;;;;;-145.41;100.00;58600.66;4980764;28;20075;-79
2023/07/19 10:44:26;;;;;;;4.15;1.65;;;;;;;-145.41;100.00;58600.66;4996835;22;20030;-82
2023/07/19 10:46:55;;;;;;;5.55;1.60;;;;;;;-145.41;100.00;58600.66;5016627;28;20135;-82
2023/07/19 10:49:22;;;;;;;3.92;1.60;;;;;;;-145.41;100.00;58600.66;5004904;28;20038;-81
2023/07/19 10:51:55;;;;;;;3.53;2.13;;;;;;;-145.41;100.00;58600.66;5003378;28;20058;-80
2023/07/19 10:54:21;;;;;;;3.65;1.83;;;;;;;-145.41;100.00;58600.66;5006774;28;20448;-81
2023/07/19 10:56:51;;;;;;;5.32;1.90;;;;;;;-145.41;100.00;58600.66;5004114;28;20042;-80
2023/07/19 10:59:17;;;;;;;6.90;1.70;;;;;;;-145.41;100.00;58600.66;5001879;28;20038;-79
2023/07/19 11:01:46;;;;;;;3.60;1.80;;;;;;;-145.41;100.00;58600.66;5000111;28;20042;-80
2023/07/19 11:04:11;;;;;;;3.72;1.73;;;;;;;-145.41;100.00;58600.66;5002793;28;20560;-80
2023/07/19 11:06:39;;;;;;;3.55;1.85;;;;;;;-145.41;100.00;58600.66;5002921;28;20038;-80